createdAt,value
2019-05-06T00:00:24.449Z,1012.5
2019-05-06T00:01:36.624Z,1012.5
2019-05-06T00:02:48.667Z,1012.5
2019-05-06T00:04:01.009Z,1012.5
2019-05-06T00:05:13.152Z,1012.5
2019-05-06T00:06:25.179Z,1012.5
2019-05-06T00:07:37.365Z,1012.5
2019-05-06T00:08:49.738Z,1012.5
2019-05-06T00:10:01.874Z,1012.5
2019-05-06T00:11:14.086Z,1012.5
2019-05-06T00:12:26.344Z,1012.5
2019-05-06T00:13:38.675Z,1012.5
2019-05-06T00:14:50.539Z,1012.5
2019-05-06T00:16:02.834Z,1012.5
2019-05-06T00:17:15.020Z,1012.5
2019-05-06T00:18:27.415Z,1012.6
2019-05-06T00:19:39.382Z,1012.5
2019-05-06T00:20:51.582Z,1012.5
2019-05-06T00:22:03.796Z,1012.5
2019-05-06T00:23:16.117Z,1012.5
2019-05-06T00:24:28.099Z,1012.6
2019-05-06T00:25:40.680Z,1012.5
2019-05-06T00:26:52.637Z,1012.6
2019-05-06T00:28:04.707Z,1012.6
2019-05-06T00:29:17.580Z,1012.5
2019-05-06T00:30:29.170Z,1012.5
2019-05-06T00:31:41.393Z,1012.5
2019-05-06T00:32:53.549Z,1012.5
2019-05-06T00:34:05.720Z,1012.5
2019-05-06T00:35:18.024Z,1012.5
2019-05-06T00:36:30.109Z,1012.5
2019-05-06T00:37:42.369Z,1012.5
2019-05-06T00:38:54.494Z,1012.5
2019-05-06T00:40:06.900Z,1012.5
2019-05-06T00:41:19.009Z,1012.5
2019-05-06T00:42:31.516Z,1012.5
2019-05-06T00:43:43.323Z,1012.5
2019-05-06T00:44:55.525Z,1012.5
2019-05-06T00:46:07.887Z,1012.6
2019-05-06T00:47:20.092Z,1012.6
2019-05-06T00:49:44.215Z,1012.6
2019-05-06T00:50:56.416Z,1012.6
2019-05-06T00:52:09.218Z,1012.6
2019-05-06T00:53:20.930Z,1012.6
2019-05-06T00:54:33.100Z,1012.5
2019-05-06T00:55:45.293Z,1012.5
2019-05-06T00:56:57.495Z,1012.5
2019-05-06T00:58:09.603Z,1012.5
2019-05-06T00:59:21.964Z,1012.5
2019-05-06T01:00:33.965Z,1012.5
2019-05-06T01:01:46.328Z,1012.5
2019-05-06T01:02:58.348Z,1012.5
2019-05-06T01:04:10.586Z,1012.5
2019-05-06T01:05:25.555Z,1012.5
2019-05-06T01:06:35.032Z,1012.5
2019-05-06T01:07:47.123Z,1012.5
2019-05-06T01:08:59.393Z,1012.5
2019-05-06T01:10:11.599Z,1012.5
2019-05-06T01:11:23.964Z,1012.5
2019-05-06T01:12:35.982Z,1012.5
2019-05-06T01:13:48.225Z,1012.5
2019-05-06T01:15:00.327Z,1012.5
2019-05-06T01:16:12.584Z,1012.5
2019-05-06T01:17:24.845Z,1012.5
2019-05-06T01:18:37.096Z,1012.5
2019-05-06T01:19:49.140Z,1012.5
2019-05-06T01:21:01.276Z,1012.5
2019-05-06T01:22:13.525Z,1012.5
2019-05-06T01:23:25.736Z,1012.5
2019-05-06T01:24:37.989Z,1012.5
2019-05-06T01:25:50.061Z,1012.5
2019-05-06T01:27:02.329Z,1012.5
2019-05-06T01:28:14.442Z,1012.5
2019-05-06T01:29:26.825Z,1012.5
2019-05-06T01:30:38.899Z,1012.5
2019-05-06T01:31:51.143Z,1012.5
2019-05-06T01:33:03.210Z,1012.5
2019-05-06T01:34:15.437Z,1012.5
2019-05-06T01:35:27.587Z,1012.5
2019-05-06T01:36:39.898Z,1012.5
2019-05-06T01:37:52.049Z,1012.5
2019-05-06T01:39:04.293Z,1012.5
2019-05-06T01:40:16.484Z,1012.5
2019-05-06T01:41:28.757Z,1012.5
2019-05-06T01:42:40.847Z,1012.5
2019-05-06T01:43:52.967Z,1012.5
2019-05-06T01:45:05.271Z,1012.6
2019-05-06T01:46:17.383Z,1012.6
2019-05-06T01:47:29.793Z,1012.6
2019-05-06T01:48:41.706Z,1012.6
2019-05-06T01:49:54.003Z,1012.6
2019-05-06T01:51:10.321Z,1012.6
2019-05-06T01:52:18.486Z,1012.6
2019-05-06T01:53:30.765Z,1012.6
2019-05-06T01:54:42.705Z,1012.6
2019-05-06T01:55:56.294Z,1012.6
2019-05-06T01:57:07.066Z,1012.6
2019-05-06T01:58:19.321Z,1012.5
2019-05-06T01:59:31.548Z,1012.6
2019-05-06T02:00:43.656Z,1012.6
2019-05-06T02:01:55.966Z,1012.6
2019-05-06T02:03:08.316Z,1012.6
2019-05-06T02:04:20.231Z,1012.6
2019-05-06T02:05:32.633Z,1012.6
2019-05-06T02:06:44.681Z,1012.6
2019-05-06T02:07:56.816Z,1012.6
2019-05-06T02:09:09.101Z,1012.6
2019-05-06T02:10:21.400Z,1012.6
2019-05-06T02:11:33.592Z,1012.6
2019-05-06T02:12:45.588Z,1012.7
2019-05-06T02:13:57.915Z,1012.7
2019-05-06T02:15:10.268Z,1012.7
2019-05-06T02:16:22.349Z,1012.6
2019-05-06T02:17:34.483Z,1012.6
2019-05-06T02:18:51.456Z,1012.6
2019-05-06T02:19:58.779Z,1012.6
2019-05-06T02:21:11.066Z,1012.6
2019-05-06T02:22:23.671Z,1012.6
2019-05-06T02:23:35.340Z,1012.6
2019-05-06T02:24:47.524Z,1012.6
2019-05-06T02:25:59.785Z,1012.6
2019-05-06T02:27:11.999Z,1012.6
2019-05-06T02:28:24.238Z,1012.6
2019-05-06T02:29:36.413Z,1012.6
2019-05-06T02:30:48.605Z,1012.6
2019-05-06T02:32:00.869Z,1012.6
2019-05-06T02:33:13.033Z,1012.7
2019-05-06T02:34:25.156Z,1012.6
2019-05-06T02:35:37.406Z,1012.6
2019-05-06T02:36:49.504Z,1012.7
2019-05-06T02:38:01.845Z,1012.6
2019-05-06T02:39:13.882Z,1012.7
2019-05-06T02:40:26.058Z,1012.6
2019-05-06T02:41:38.390Z,1012.6
2019-05-06T02:42:50.561Z,1012.6
2019-05-06T02:44:02.802Z,1012.6
2019-05-06T02:45:14.819Z,1012.6
2019-05-06T02:46:27.195Z,1012.6
2019-05-06T02:47:39.473Z,1012.6
2019-05-06T02:48:53.022Z,1012.6
2019-05-06T02:50:03.709Z,1012.6
2019-05-06T02:51:15.894Z,1012.6
2019-05-06T02:52:28.015Z,1012.6
2019-05-06T02:53:40.345Z,1012.6
2019-05-06T02:54:52.408Z,1012.6
2019-05-06T02:56:04.791Z,1012.6
2019-05-06T02:57:16.863Z,1012.6
2019-05-06T02:58:29.098Z,1012.5
2019-05-06T02:59:41.385Z,1012.5
2019-05-06T03:00:53.364Z,1012.6
2019-05-06T03:02:05.586Z,1012.5
2019-05-06T03:03:17.753Z,1012.6
2019-05-06T03:04:30.121Z,1012.6
2019-05-06T03:05:42.243Z,1012.5
2019-05-06T03:06:54.552Z,1012.6
2019-05-06T03:08:06.718Z,1012.6
2019-05-06T03:09:18.747Z,1012.6
2019-05-06T03:10:30.979Z,1012.6
2019-05-06T03:11:43.195Z,1012.5
2019-05-06T03:12:55.391Z,1012.6
2019-05-06T03:14:07.528Z,1012.6
2019-05-06T03:15:19.704Z,1012.6
2019-05-06T03:16:31.950Z,1012.6
2019-05-06T03:17:44.151Z,1012.6
2019-05-06T03:18:56.548Z,1012.5
2019-05-06T03:20:08.524Z,1012.5
2019-05-06T03:21:20.719Z,1012.5
2019-05-06T03:22:32.951Z,1012.5
2019-05-06T03:23:45.157Z,1012.5
2019-05-06T03:24:57.318Z,1012.5
2019-05-06T03:26:13.325Z,1012.5
2019-05-06T03:27:21.717Z,1012.5
2019-05-06T03:28:35.299Z,1012.5
2019-05-06T03:29:46.202Z,1012.5
2019-05-06T03:30:58.320Z,1012.5
2019-05-06T03:32:10.636Z,1012.5
2019-05-06T03:33:24.424Z,1012.5
2019-05-06T03:34:35.032Z,1012.4
2019-05-06T03:35:46.980Z,1012.5
2019-05-06T03:36:59.854Z,1012.5
2019-05-06T03:38:11.542Z,1012.4
2019-05-06T03:39:23.559Z,1012.5
2019-05-06T03:40:36.753Z,1012.5
2019-05-06T03:41:48.044Z,1012.5
2019-05-06T03:43:00.145Z,1012.5
2019-05-06T03:44:12.499Z,1012.5
2019-05-06T03:45:24.648Z,1012.5
2019-05-06T03:46:36.900Z,1012.5
2019-05-06T03:47:49.031Z,1012.5
2019-05-06T03:49:01.191Z,1012.5
2019-05-06T03:50:13.298Z,1012.5
2019-05-06T03:51:25.505Z,1012.5
2019-05-06T03:52:37.866Z,1012.5
2019-05-06T03:53:50.082Z,1012.5
2019-05-06T03:55:02.125Z,1012.5
2019-05-06T03:56:14.502Z,1012.5
2019-05-06T03:57:26.605Z,1012.5
2019-05-06T03:58:38.727Z,1012.5
2019-05-06T03:59:50.868Z,1012.6
2019-05-06T04:01:03.124Z,1012.5
2019-05-06T04:02:15.263Z,1012.6
2019-05-06T04:03:27.475Z,1012.6
2019-05-06T04:04:39.672Z,1012.5
2019-05-06T04:05:51.968Z,1012.6
2019-05-06T04:07:04.030Z,1012.6
2019-05-06T04:08:16.242Z,1012.6
2019-05-06T04:09:28.643Z,1012.6
2019-05-06T04:10:41.464Z,1012.6
2019-05-06T04:11:53.152Z,1012.6
2019-05-06T04:13:04.993Z,1012.6
2019-05-06T04:14:17.266Z,1012.6
2019-05-06T04:15:29.498Z,1012.6
2019-05-06T04:16:41.784Z,1012.6
2019-05-06T04:17:53.888Z,1012.6
2019-05-06T04:19:05.979Z,1012.6
2019-05-06T04:20:18.243Z,1012.6
2019-05-06T04:21:30.732Z,1012.6
2019-05-06T04:22:42.654Z,1012.7
2019-05-06T04:23:54.846Z,1012.7
2019-05-06T04:25:10.749Z,1012.6
2019-05-06T04:26:20.278Z,1012.7
2019-05-06T04:27:31.317Z,1012.6
2019-05-06T04:28:43.550Z,1012.6
2019-05-06T04:29:55.852Z,1012.7
2019-05-06T04:31:08.051Z,1012.7
2019-05-06T04:32:20.113Z,1012.6
2019-05-06T04:33:32.360Z,1012.6
2019-05-06T04:34:44.616Z,1012.6
2019-05-06T04:35:56.654Z,1012.5
2019-05-06T04:37:08.907Z,1012.5
2019-05-06T04:38:21.133Z,1012.6
2019-05-06T04:39:33.272Z,1012.6
2019-05-06T04:40:45.693Z,1012.6
2019-05-06T04:41:57.787Z,1012.6
2019-05-06T04:43:09.877Z,1012.6
2019-05-06T04:44:22.267Z,1012.7
2019-05-06T04:45:34.305Z,1012.7
2019-05-06T04:46:51.060Z,1012.7
2019-05-06T04:47:58.729Z,1012.7
2019-05-06T04:49:10.792Z,1012.8
2019-05-06T04:50:23.002Z,1012.8
2019-05-06T04:51:35.253Z,1012.8
2019-05-06T04:52:47.539Z,1012.7
2019-05-06T04:53:59.685Z,1012.7
2019-05-06T04:55:11.776Z,1012.7
2019-05-06T04:56:27.205Z,1012.8
2019-05-06T04:57:36.251Z,1012.8
2019-05-06T04:58:48.461Z,1012.7
2019-05-06T05:00:00.641Z,1012.8
2019-05-06T05:01:12.752Z,1012.8
2019-05-06T05:02:24.918Z,1012.8
2019-05-06T05:03:37.145Z,1012.8
2019-05-06T05:04:49.482Z,1012.8
2019-05-06T05:06:01.674Z,1012.8
2019-05-06T05:07:13.725Z,1012.7
2019-05-06T05:08:25.884Z,1012.8
2019-05-06T05:09:38.085Z,1012.8
2019-05-06T05:10:50.272Z,1012.8
2019-05-06T05:12:02.571Z,1012.8
2019-05-06T05:13:14.754Z,1012.8
2019-05-06T05:14:26.854Z,1012.8
2019-05-06T05:15:39.171Z,1012.8
2019-05-06T05:16:51.344Z,1012.8
2019-05-06T05:18:03.706Z,1012.8
2019-05-06T05:19:15.668Z,1012.8
2019-05-06T05:20:27.919Z,1012.8
2019-05-06T05:21:40.040Z,1012.9
2019-05-06T05:22:52.469Z,1012.8
2019-05-06T05:24:04.726Z,1012.9
2019-05-06T05:25:16.679Z,1012.9
2019-05-06T05:27:41.016Z,1012.8
2019-05-06T05:28:53.636Z,1012.8
2019-05-06T05:30:05.514Z,1012.9
2019-05-06T05:31:17.683Z,1012.9
2019-05-06T05:32:29.834Z,1012.9
2019-05-06T05:33:42.245Z,1013
2019-05-06T05:34:54.191Z,1013
2019-05-06T05:36:06.551Z,1013
2019-05-06T05:37:18.569Z,1013
2019-05-06T05:38:30.920Z,1013
2019-05-06T05:39:43.059Z,1013
2019-05-06T05:40:55.327Z,1013
2019-05-06T05:42:07.407Z,1013
2019-05-06T05:43:21.304Z,1013
2019-05-06T05:44:32.090Z,1013
2019-05-06T05:45:43.892Z,1013
2019-05-06T05:46:56.183Z,1013
2019-05-06T05:48:08.278Z,1013
2019-05-06T05:49:20.499Z,1013
2019-05-06T05:50:32.687Z,1013
2019-05-06T05:51:44.874Z,1013
2019-05-06T05:52:57.067Z,1013
2019-05-06T05:54:09.345Z,1013
2019-05-06T05:55:21.837Z,1013
2019-05-06T05:56:33.867Z,1013
2019-05-06T05:57:45.926Z,1013
2019-05-06T05:58:58.033Z,1013
2019-05-06T06:00:10.318Z,1013
2019-05-06T06:01:22.615Z,1012.9
2019-05-06T06:02:39.591Z,1013
2019-05-06T06:03:46.861Z,1012.9
2019-05-06T06:04:58.995Z,1013
2019-05-06T06:06:11.694Z,1012.9
2019-05-06T06:07:23.407Z,1013
2019-05-06T06:08:35.605Z,1013
2019-05-06T06:09:47.882Z,1013
2019-05-06T06:11:00.000Z,1013
2019-05-06T06:12:12.290Z,1012.9
2019-05-06T06:13:24.385Z,1012.9
2019-05-06T06:14:36.629Z,1012.9
2019-05-06T06:15:48.744Z,1013
2019-05-06T06:17:01.151Z,1013
2019-05-06T06:18:13.240Z,1013
2019-05-06T06:19:25.422Z,1012.9
2019-05-06T06:20:37.613Z,1013
2019-05-06T06:21:49.797Z,1012.9
2019-05-06T06:23:01.969Z,1012.9
2019-05-06T06:24:14.261Z,1012.8
2019-05-06T06:25:26.368Z,1012.9
2019-05-06T06:26:38.660Z,1012.9
2019-05-06T06:27:50.856Z,1012.9
2019-05-06T06:29:02.901Z,1013
2019-05-06T06:30:15.201Z,1012.9
2019-05-06T06:31:27.271Z,1013
2019-05-06T06:32:39.477Z,1013
2019-05-06T06:33:51.894Z,1013
2019-05-06T06:35:03.874Z,1013.1
2019-05-06T06:36:16.039Z,1013.1
2019-05-06T06:37:28.367Z,1013.1
2019-05-06T06:38:40.631Z,1013.1
2019-05-06T06:39:52.937Z,1013.1
2019-05-06T06:41:05.171Z,1013.1
2019-05-06T06:42:17.132Z,1013
2019-05-06T06:43:29.290Z,1013
2019-05-06T06:44:41.424Z,1013
2019-05-06T06:45:54.034Z,1013
2019-05-06T06:47:05.844Z,1013
2019-05-06T06:48:18.181Z,1013
2019-05-06T06:49:30.328Z,1013
2019-05-06T06:50:42.463Z,1013
2019-05-06T06:51:55.022Z,1013
2019-05-06T06:53:06.845Z,1013
2019-05-06T06:54:19.058Z,1013
2019-05-06T06:55:31.290Z,1013
2019-05-06T06:56:43.375Z,1013
2019-05-06T06:57:55.631Z,1013
2019-05-06T06:59:07.797Z,1013
2019-05-06T07:00:20.092Z,1013
2019-05-06T07:01:32.213Z,1013
2019-05-06T07:02:44.384Z,1013
2019-05-06T07:03:56.494Z,1012.9
2019-05-06T07:05:08.787Z,1012.9
2019-05-06T07:06:20.998Z,1012.9
2019-05-06T07:07:33.125Z,1012.9
2019-05-06T07:08:46.255Z,1012.9
2019-05-06T07:09:57.579Z,1013
2019-05-06T07:11:09.831Z,1012.9
2019-05-06T07:12:21.988Z,1012.9
2019-05-06T07:13:34.165Z,1012.9
2019-05-06T07:14:46.480Z,1013
2019-05-06T07:15:58.594Z,1012.9
2019-05-06T07:17:10.849Z,1012.9
2019-05-06T07:18:23.046Z,1012.9
2019-05-06T07:19:35.099Z,1013
2019-05-06T07:20:47.368Z,1013
2019-05-06T07:21:59.495Z,1013
2019-05-06T07:23:11.767Z,1013
2019-05-06T07:24:23.865Z,1013
2019-05-06T07:25:36.552Z,1013
2019-05-06T07:26:48.356Z,1013
2019-05-06T07:28:00.375Z,1013
2019-05-06T07:30:24.953Z,1013
2019-05-06T07:31:37.229Z,1013
2019-05-06T07:32:49.260Z,1013
2019-05-06T07:34:01.411Z,1013
2019-05-06T07:35:13.636Z,1013
2019-05-06T07:36:25.880Z,1013
2019-05-06T07:37:37.920Z,1013.1
2019-05-06T07:38:50.324Z,1013.1
2019-05-06T07:40:02.329Z,1013.1
2019-05-06T07:41:14.806Z,1013.1
2019-05-06T07:42:26.789Z,1013.1
2019-05-06T07:43:38.996Z,1013.1
2019-05-06T07:44:51.320Z,1013.1
2019-05-06T07:46:03.410Z,1013.1
2019-05-06T07:47:15.626Z,1013.2
2019-05-06T07:48:27.770Z,1013.2
2019-05-06T07:49:39.886Z,1013.2
2019-05-06T07:50:52.046Z,1013.2
2019-05-06T07:52:06.936Z,1013.2
2019-05-06T07:53:16.570Z,1013.2
2019-05-06T07:54:28.946Z,1013.1
2019-05-06T07:55:41.224Z,1013.2
2019-05-06T07:56:53.194Z,1013.1
2019-05-06T07:58:05.344Z,1013.2
2019-05-06T07:59:17.582Z,1013.2
2019-05-06T08:00:29.714Z,1013.2
2019-05-06T08:01:41.874Z,1013.3
2019-05-06T08:02:54.090Z,1013.3
2019-05-06T08:04:06.192Z,1013.3
2019-05-06T08:05:18.507Z,1013.3
2019-05-06T08:06:30.761Z,1013.3
2019-05-06T08:07:42.854Z,1013.3
2019-05-06T08:08:54.978Z,1013.3
2019-05-06T08:10:07.693Z,1013.3
2019-05-06T08:11:19.370Z,1013.3
2019-05-06T08:12:31.640Z,1013.3
2019-05-06T08:13:43.816Z,1013.3
2019-05-06T08:14:56.083Z,1013.3
2019-05-06T08:16:08.218Z,1013.3
2019-05-06T08:17:20.356Z,1013.3
2019-05-06T08:18:32.663Z,1013.3
2019-05-06T08:19:44.957Z,1013.2
2019-05-06T08:20:57.010Z,1013.2
2019-05-06T08:22:09.211Z,1013.1
2019-05-06T08:23:21.365Z,1013.2
2019-05-06T08:24:33.625Z,1013.2
2019-05-06T08:25:49.667Z,1013.2
2019-05-06T08:26:59.790Z,1013.2
2019-05-06T08:28:10.166Z,1013.2
2019-05-06T08:29:22.393Z,1013.2
2019-05-06T08:30:34.702Z,1013.2
2019-05-06T08:31:47.344Z,1013.1
2019-05-06T08:32:58.946Z,1013.1
2019-05-06T08:34:11.059Z,1013.1
2019-05-06T08:35:23.425Z,1013.1
2019-05-06T08:36:35.399Z,1013
2019-05-06T08:37:47.602Z,1013
2019-05-06T08:38:59.935Z,1013
2019-05-06T08:40:12.140Z,1013.1
2019-05-06T08:41:24.187Z,1013.1
2019-05-06T08:42:36.535Z,1013.1
2019-05-06T08:43:48.640Z,1013.1
2019-05-06T08:45:00.857Z,1013.1
2019-05-06T08:46:13.041Z,1013.1
2019-05-06T08:47:25.311Z,1013.1
2019-05-06T08:48:37.333Z,1013.1
2019-05-06T08:49:49.584Z,1013.1
2019-05-06T08:51:01.958Z,1013.1
2019-05-06T08:52:14.035Z,1013.1
2019-05-06T08:53:26.290Z,1013.1
2019-05-06T08:54:38.417Z,1013.3
2019-05-06T08:55:50.524Z,1013.1
2019-05-06T08:57:02.840Z,1013.1
2019-05-06T08:58:15.159Z,1013.1
2019-05-06T08:59:27.203Z,1013.1
2019-05-06T09:00:39.521Z,1013.2
2019-05-06T09:01:51.762Z,1013.2
2019-05-06T09:03:04.823Z,1013
2019-05-06T09:04:16.029Z,1013
2019-05-06T09:05:28.218Z,1013
2019-05-06T09:06:40.505Z,1013.1
2019-05-06T09:07:52.725Z,1013.1
2019-05-06T09:09:04.671Z,1013.1
2019-05-06T09:10:16.978Z,1013
2019-05-06T09:11:29.029Z,1013
2019-05-06T09:12:41.529Z,1013
2019-05-06T09:13:53.532Z,1013
2019-05-06T09:15:05.666Z,1013
2019-05-06T09:16:17.876Z,1013
2019-05-06T09:17:29.991Z,1013
2019-05-06T09:18:42.365Z,1013
2019-05-06T09:19:54.423Z,1013
2019-05-06T09:21:06.831Z,1013
2019-05-06T09:22:18.899Z,1013
2019-05-06T09:23:30.972Z,1013
2019-05-06T09:24:43.154Z,1013
2019-05-06T09:25:58.020Z,1012.9
2019-05-06T09:27:07.734Z,1012.9
2019-05-06T09:28:19.847Z,1012.9
2019-05-06T09:29:32.053Z,1013
2019-05-06T09:30:44.374Z,1013
2019-05-06T09:31:56.403Z,1013
2019-05-06T09:33:08.644Z,1013
2019-05-06T09:34:20.898Z,1013
2019-05-06T09:35:33.034Z,1013
2019-05-06T09:36:49.656Z,1013
2019-05-06T09:37:57.284Z,1013
2019-05-06T09:39:09.472Z,1013
2019-05-06T09:40:21.907Z,1012.9
2019-05-06T09:41:34.406Z,1012.9
2019-05-06T09:42:46.187Z,1013
2019-05-06T09:43:58.396Z,1012.9
2019-05-06T09:45:10.650Z,1012.9
2019-05-06T09:46:22.783Z,1012.9
2019-05-06T09:47:34.955Z,1012.9
2019-05-06T09:48:47.531Z,1012.9
2019-05-06T09:49:59.439Z,1012.8
2019-05-06T09:51:11.454Z,1012.9
2019-05-06T09:52:23.626Z,1012.9
2019-05-06T09:53:35.846Z,1012.9
2019-05-06T09:54:48.127Z,1012.8
2019-05-06T09:56:04.514Z,1012.8
2019-05-06T09:57:14.828Z,1012.8
2019-05-06T09:58:24.688Z,1012.7
2019-05-06T09:59:36.883Z,1012.8
2019-05-06T10:00:48.973Z,1012.8
2019-05-06T10:02:01.169Z,1012.8
2019-05-06T10:03:13.495Z,1012.8
2019-05-06T10:04:25.612Z,1012.7
2019-05-06T10:05:37.928Z,1012.7
2019-05-06T10:06:50.377Z,1012.7
2019-05-06T10:08:02.152Z,1012.7
2019-05-06T10:09:14.428Z,1012.7
2019-05-06T10:10:26.588Z,1012.7
2019-05-06T10:11:38.927Z,1012.7
2019-05-06T10:12:51.077Z,1012.9
2019-05-06T10:14:03.114Z,1012.8
2019-05-06T10:15:15.456Z,1012.8
2019-05-06T10:16:27.514Z,1012.7
2019-05-06T10:17:39.843Z,1012.8
2019-05-06T10:18:52.012Z,1012.8
2019-05-06T10:20:04.177Z,1012.8
2019-05-06T10:21:16.644Z,1012.7
2019-05-06T10:22:28.627Z,1012.7
2019-05-06T10:23:40.826Z,1012.8
2019-05-06T10:24:53.154Z,1012.7
2019-05-06T10:26:06.955Z,1012.7
2019-05-06T10:27:17.363Z,1012.7
2019-05-06T10:28:29.427Z,1012.7
2019-05-06T10:29:41.741Z,1012.7
2019-05-06T10:30:53.927Z,1012.6
2019-05-06T10:32:06.181Z,1012.7
2019-05-06T10:33:18.322Z,1012.7
2019-05-06T10:34:30.494Z,1012.6
2019-05-06T10:35:42.739Z,1012.6
2019-05-06T10:36:54.893Z,1012.7
2019-05-06T10:38:07.048Z,1012.6
2019-05-06T10:39:19.248Z,1012.6
2019-05-06T10:40:36.234Z,1012.5
2019-05-06T10:41:43.715Z,1012.6
2019-05-06T10:42:56.733Z,1012.6
2019-05-06T10:44:08.031Z,1012.7
2019-05-06T10:45:20.255Z,1012.6
2019-05-06T10:46:32.470Z,1012.7
2019-05-06T10:47:44.638Z,1012.7
2019-05-06T10:48:56.737Z,1012.6
2019-05-06T10:50:09.023Z,1012.6
2019-05-06T10:51:21.247Z,1012.6
2019-05-06T10:52:33.349Z,1012.6
2019-05-06T10:53:45.620Z,1012.6
2019-05-06T10:54:58.319Z,1012.5
2019-05-06T10:56:15.432Z,1012.6
2019-05-06T10:57:22.321Z,1012.5
2019-05-06T10:58:34.308Z,1012.6
2019-05-06T10:59:46.642Z,1012.6
2019-05-06T11:00:58.777Z,1012.5
2019-05-06T11:02:10.881Z,1012.5
2019-05-06T11:03:23.196Z,1012.5
2019-05-06T11:04:35.268Z,1012.5
2019-05-06T11:05:47.489Z,1012.5
2019-05-06T11:06:59.752Z,1012.5
2019-05-06T11:08:11.919Z,1012.5
2019-05-06T11:09:24.209Z,1012.5
2019-05-06T11:10:37.192Z,1012.4
2019-05-06T11:11:51.033Z,1012.5
2019-05-06T11:13:00.667Z,1012.5
2019-05-06T11:14:12.857Z,1012.5
2019-05-06T11:15:25.101Z,1012.4
2019-05-06T11:16:37.273Z,1012.4
2019-05-06T11:17:49.426Z,1012.4
2019-05-06T11:19:02.517Z,1012.4
2019-05-06T11:20:13.806Z,1012.4
2019-05-06T11:21:26.112Z,1012.4
2019-05-06T11:22:38.387Z,1012.4
2019-05-06T11:23:52.334Z,1012.4
2019-05-06T11:25:02.666Z,1012.4
2019-05-06T11:26:15.014Z,1012.4
2019-05-06T11:27:27.100Z,1012.4
2019-05-06T11:28:39.211Z,1012.3
2019-05-06T11:29:51.524Z,1012.4
2019-05-06T11:31:03.677Z,1012.4
2019-05-06T11:32:15.847Z,1012.4
2019-05-06T11:33:28.172Z,1012.4
2019-05-06T11:34:40.265Z,1012.4
2019-05-06T11:35:52.386Z,1012.4
2019-05-06T11:37:04.722Z,1012.3
2019-05-06T11:38:16.731Z,1012.4
2019-05-06T11:39:29.025Z,1012.4
2019-05-06T11:40:41.140Z,1012.4
2019-05-06T11:41:53.515Z,1012.3
2019-05-06T11:43:05.618Z,1012.3
2019-05-06T11:44:18.027Z,1012.3
2019-05-06T11:45:30.006Z,1012.3
2019-05-06T11:46:42.268Z,1012.3
2019-05-06T11:47:54.461Z,1012.3
2019-05-06T11:49:06.803Z,1012.3
2019-05-06T11:50:18.857Z,1012.3
2019-05-06T11:51:30.984Z,1012.3
2019-05-06T11:52:43.078Z,1012.2
2019-05-06T11:53:55.497Z,1012.3
2019-05-06T11:55:07.656Z,1012.2
2019-05-06T11:56:20.066Z,1012.2
2019-05-06T11:57:32.018Z,1012.2
2019-05-06T11:58:44.176Z,1012.2
2019-05-06T11:59:56.402Z,1012.2
2019-05-06T12:01:08.588Z,1012.2
2019-05-06T12:02:20.743Z,1012.2
2019-05-06T12:03:32.909Z,1012.2
2019-05-06T12:04:45.411Z,1012.3
2019-05-06T12:05:57.421Z,1012.2
2019-05-06T12:07:09.551Z,1012.3
2019-05-06T12:08:21.744Z,1012.2
2019-05-06T12:09:35.267Z,1012.2
2019-05-06T12:10:46.186Z,1012.2
2019-05-06T12:11:58.367Z,1012.3
2019-05-06T12:13:10.506Z,1012.3
2019-05-06T12:14:22.745Z,1012.2
2019-05-06T12:15:35.121Z,1012.3
2019-05-06T12:16:47.704Z,1012.3
2019-05-06T12:17:59.417Z,1012.2
2019-05-06T12:19:11.604Z,1012.3
2019-05-06T12:20:23.998Z,1012.3
2019-05-06T12:21:35.859Z,1012.3
2019-05-06T12:22:47.966Z,1012.3
2019-05-06T12:24:00.266Z,1012.3
2019-05-06T12:25:12.474Z,1012.3
2019-05-06T12:26:26.123Z,1012.4
2019-05-06T12:27:36.869Z,1012.4
2019-05-06T12:28:48.986Z,1012.4
2019-05-06T12:30:01.239Z,1012.4
2019-05-06T12:31:13.462Z,1012.4
2019-05-06T12:32:25.550Z,1012.4
2019-05-06T12:33:37.884Z,1012.4
2019-05-06T12:34:49.980Z,1012.4
2019-05-06T12:36:02.206Z,1012.4
2019-05-06T12:37:14.428Z,1012.4
2019-05-06T12:38:26.561Z,1012.4
2019-05-06T12:39:38.714Z,1012.4
2019-05-06T12:40:50.898Z,1012.4
2019-05-06T12:42:03.253Z,1012.4
2019-05-06T12:43:21.259Z,1012.4
2019-05-06T12:44:27.810Z,1012.3
2019-05-06T12:45:39.968Z,1012.4
2019-05-06T12:46:52.019Z,1012.3
2019-05-06T12:48:05.235Z,1012.3
2019-05-06T12:49:16.281Z,1012.4
2019-05-06T12:50:28.561Z,1012.3
2019-05-06T12:51:40.678Z,1012.3
2019-05-06T12:52:52.973Z,1012.4
2019-05-06T12:54:05.094Z,1012.3
2019-05-06T12:55:17.950Z,1012.3
2019-05-06T12:56:34.633Z,1012.4
2019-05-06T12:57:41.704Z,1012.3
2019-05-06T12:58:53.944Z,1012.4
2019-05-06T13:00:06.090Z,1012.4
2019-05-06T13:01:18.325Z,1012.3
2019-05-06T13:02:30.425Z,1012.4
2019-05-06T13:03:42.702Z,1012.3
2019-05-06T13:04:54.895Z,1012.3
2019-05-06T13:06:07.076Z,1012.3
2019-05-06T13:07:22.152Z,1012.3
2019-05-06T13:08:31.728Z,1012.3
2019-05-06T13:09:43.697Z,1012.3
2019-05-06T13:10:55.883Z,1012.2
2019-05-06T13:12:08.088Z,1012.2
2019-05-06T13:13:21.697Z,1012.2
2019-05-06T13:14:32.448Z,1012.2
2019-05-06T13:15:44.656Z,1012.2
2019-05-06T13:16:56.753Z,1012.1
2019-05-06T13:18:08.998Z,1012.1
2019-05-06T13:19:21.238Z,1012.1
2019-05-06T13:20:33.408Z,1012.1
2019-05-06T13:21:45.704Z,1012.1
2019-05-06T13:22:57.835Z,1012.1
2019-05-06T13:24:10.087Z,1012
2019-05-06T13:25:22.631Z,1012.1
2019-05-06T13:26:35.218Z,1012
2019-05-06T13:27:46.595Z,1012.1
2019-05-06T13:28:58.735Z,1012.1
2019-05-06T13:30:11.101Z,1012.1
2019-05-06T13:31:23.236Z,1012
2019-05-06T13:32:36.492Z,1012.1
2019-05-06T13:33:50.890Z,1012.1
2019-05-06T13:34:59.883Z,1012.1
2019-05-06T13:36:12.155Z,1012.1
2019-05-06T13:37:24.186Z,1012
2019-05-06T13:38:36.272Z,1012.2
2019-05-06T13:39:48.588Z,1012.1
2019-05-06T13:41:00.665Z,1012.1
2019-05-06T13:42:12.983Z,1012.1
2019-05-06T13:43:25.163Z,1012.1
2019-05-06T13:44:37.245Z,1012.1
2019-05-06T13:45:50.109Z,1012
2019-05-06T13:47:01.824Z,1012
2019-05-06T13:48:14.168Z,1012
2019-05-06T13:49:26.170Z,1012
2019-05-06T13:50:38.505Z,1011.9
2019-05-06T13:51:50.722Z,1011.9
2019-05-06T13:53:06.733Z,1011.9
2019-05-06T13:54:14.912Z,1011.9
2019-05-06T13:55:27.309Z,1011.9
2019-05-06T13:56:39.366Z,1011.9
2019-05-06T13:57:51.524Z,1011.9
2019-05-06T13:59:03.858Z,1011.9
2019-05-06T14:00:15.912Z,1011.8
2019-05-06T14:01:28.107Z,1011.8
2019-05-06T14:02:40.319Z,1011.8
2019-05-06T14:03:52.406Z,1011.8
2019-05-06T14:05:04.804Z,1011.8
2019-05-06T14:06:17.818Z,1011.7
2019-05-06T14:07:29.201Z,1011.8
2019-05-06T14:08:41.264Z,1011.8
2019-05-06T14:09:53.474Z,1011.6
2019-05-06T14:11:05.639Z,1011.6
2019-05-06T14:12:17.835Z,1011.7
2019-05-06T14:13:29.936Z,1011.7
2019-05-06T14:14:42.181Z,1011.7
2019-05-06T14:15:54.769Z,1011.6
2019-05-06T14:17:06.677Z,1011.7
2019-05-06T14:18:18.821Z,1011.6
2019-05-06T14:19:31.029Z,1011.6
2019-05-06T14:20:43.194Z,1011.6
2019-05-06T14:21:55.453Z,1011.6
2019-05-06T14:23:07.742Z,1011.5
2019-05-06T14:24:19.765Z,1011.6
2019-05-06T14:25:32.097Z,1011.6
2019-05-06T14:26:44.228Z,1011.5
2019-05-06T14:27:56.285Z,1011.5
2019-05-06T14:29:08.540Z,1011.5
2019-05-06T14:30:21.853Z,1011.5
2019-05-06T14:31:36.408Z,1011.5
2019-05-06T14:32:45.192Z,1011.5
2019-05-06T14:33:57.369Z,1011.5
2019-05-06T14:35:09.547Z,1011.6
2019-05-06T14:36:21.809Z,1011.6
2019-05-06T14:37:33.947Z,1011.5
2019-05-06T14:38:47.547Z,1011.5
2019-05-06T14:39:58.225Z,1011.5
2019-05-06T14:41:10.502Z,1011.5
2019-05-06T14:42:22.734Z,1011.5
2019-05-06T14:43:34.925Z,1011.6
2019-05-06T14:44:47.138Z,1011.6
2019-05-06T14:45:59.329Z,1011.5
2019-05-06T14:47:11.514Z,1011.6
2019-05-06T14:48:23.686Z,1011.6
2019-05-06T14:49:36.123Z,1011.5
2019-05-06T14:50:47.981Z,1011.5
2019-05-06T14:52:00.290Z,1011.5
2019-05-06T14:53:12.401Z,1011.5
2019-05-06T14:54:24.623Z,1011.5
2019-05-06T14:55:37.104Z,1011.5
2019-05-06T14:56:49.085Z,1011.5
2019-05-06T14:58:01.332Z,1011.5
2019-05-06T14:59:13.530Z,1011.4
2019-05-06T15:00:25.806Z,1011.3
2019-05-06T15:01:37.938Z,1011.4
2019-05-06T15:02:49.975Z,1011.4
2019-05-06T15:04:02.357Z,1011.3
2019-05-06T15:05:14.347Z,1011.3
2019-05-06T15:06:26.620Z,1011.3
2019-05-06T15:07:38.808Z,1011.4
2019-05-06T15:08:50.964Z,1011.3
2019-05-06T15:10:03.188Z,1011.3
2019-05-06T15:11:15.358Z,1011.2
2019-05-06T15:12:27.588Z,1011.2